Time;durP1;ratioP1;P1;durP2;ratioP2;P2;SDS_P1;SDS_P2;PMS_P1;PMS_P2;Temp;Humidity;BMP_temperature;BMP_pressure;BME280_temperature;BME280_humidity;BME280_pressure;Samples;Min_cycle;Max_cycle;Signal;HPM_P1;HPM_P2
2021/08/10 00:01:11;;;;;;;5.63;2.65;;;;;;;19.53;58.40;101499.25;4954544;28;123902;-74
2021/08/10 00:03:38;;;;;;;4.55;2.90;;;;;;;19.50;58.36;101491.44;4976267;28;114655;-74
2021/08/10 00:06:06;;;;;;;4.80;2.60;;;;;;;19.49;58.59;101497.78;4969995;28;113207;-74
2021/08/10 00:08:33;;;;;;;5.10;2.67;;;;;;;19.48;58.56;101493.38;4974355;28;123801;-74
2021/08/10 00:11:00;;;;;;;4.32;2.60;;;;;;;19.47;58.53;101491.66;4974711;28;123885;-74
2021/08/10 00:13:27;;;;;;;3.80;2.60;;;;;;;19.46;58.54;101489.97;4975311;28;114062;-74
2021/08/10 00:15:54;;;;;;;4.38;2.67;;;;;;;19.45;58.49;101488.22;4972634;28;113869;-74
2021/08/10 00:18:22;;;;;;;3.92;2.58;;;;;;;19.45;58.48;101482.84;4972779;28;123861;-74
2021/08/10 00:20:50;;;;;;;4.35;2.85;;;;;;;19.42;58.74;101483.06;4967816;28;123240;-74
2021/08/10 00:23:18;;;;;;;5.40;2.70;;;;;;;19.40;58.70;101479.63;4954468;28;114169;-74
2021/08/10 00:25:47;;;;;;;5.93;2.55;;;;;;;19.38;58.72;101471.72;4962704;28;114353;-74
2021/08/10 00:28:15;;;;;;;5.18;2.72;;;;;;;19.37;58.75;101474.50;4968952;28;124040;-74
2021/08/10 00:30:44;;;;;;;5.35;2.80;;;;;;;19.34;58.72;101490.81;4977545;28;123731;-74
2021/08/10 00:33:13;;;;;;;4.45;2.63;;;;;;;19.35;58.65;101495.25;4958806;28;111979;-74
2021/08/10 00:35:40;;;;;;;4.28;2.60;;;;;;;19.33;58.82;101491.81;4969964;28;113004;-74
2021/08/10 00:38:08;;;;;;;4.60;2.70;;;;;;;19.31;58.85;101501.78;4972744;28;124116;-74
2021/08/10 00:40:37;;;;;;;4.43;2.55;;;;;;;19.30;59.17;101494.69;4969460;28;123522;-74
2021/08/10 00:43:28;;;;;;;7.32;2.80;;;;;;;19.27;58.98;101490.41;4951983;28;114556;-74
2021/08/10 00:45:55;;;;;;;4.35;2.80;;;;;;;19.28;59.05;101491.28;4951650;28;114773;-74
2021/08/10 00:48:23;;;;;;;6.40;2.97;;;;;;;19.28;59.13;101491.28;4968899;28;123701;-74
2021/08/10 00:50:52;;;;;;;5.82;2.85;;;;;;;19.29;59.26;101490.28;4952220;28;123331;-74
2021/08/10 00:53:20;;;;;;;5.43;2.95;;;;;;;19.29;59.33;101492.97;4970303;28;113485;-74
2021/08/10 00:55:47;;;;;;;5.35;3.00;;;;;;;19.29;59.29;101492.97;4974132;28;114163;-74
2021/08/10 00:58:16;;;;;;;5.45;3.00;;;;;;;19.29;59.29;101495.66;4972575;28;123810;-74
2021/08/10 01:00:45;;;;;;;5.25;2.58;;;;;;;19.28;59.13;101491.28;4971108;28;123527;-74
2021/08/10 01:03:13;;;;;;;4.65;2.83;;;;;;;19.28;59.51;101478.69;4977073;28;113826;-74
2021/08/10 01:05:47;;;;;;;4.30;2.75;;;;;;;19.29;59.64;101487.59;4972449;28;113159;-74
2021/08/10 01:08:29;;;;;;;5.20;2.73;;;;;;;19.28;59.51;101485.91;4969762;28;123555;-74
2021/08/10 01:11:07;;;;;;;4.60;2.85;;;;;;;19.26;59.25;101494.91;4970404;28;123914;-74
2021/08/10 01:13:37;;;;;;;5.47;2.97;;;;;;;19.26;59.43;101489.53;4963614;28;113472;-74
2021/08/10 01:16:26;;;;;;;4.07;2.67;;;;;;;19.26;59.39;101488.69;4955882;28;113124;-75
2021/08/10 01:19:18;;;;;;;5.70;2.90;;;;;;;19.26;59.50;101486.84;4970115;28;123164;-75
2021/08/10 01:21:51;;;;;;;6.60;3.40;;;;;;;19.26;59.47;101484.16;4970475;28;123115;-75
2021/08/10 01:24:22;;;;;;;4.03;2.88;;;;;;;19.27;59.61;101485.06;4954297;28;113346;-75
2021/08/10 01:27:25;;;;;;;5.00;2.65;;;;;;;19.26;59.59;101478.78;4954221;28;114009;-75
2021/08/10 01:30:06;;;;;;;7.05;3.08;;;;;;;19.29;59.67;101466.13;4967853;28;123454;-75
2021/08/10 01:32:37;;;;;;;5.43;2.88;;;;;;;19.30;59.45;101473.22;4972725;28;123894;-75
2021/08/10 01:35:08;;;;;;;4.55;3.15;;;;;;;19.30;59.65;101470.53;4955224;28;114710;-75
2021/08/10 01:37:38;;;;;;;4.03;2.78;;;;;;;19.31;59.67;101480.28;4951834;28;114050;-75
2021/08/10 01:40:09;;;;;;;7.22;2.90;;;;;;;19.31;59.57;101469.53;4973305;28;124322;-75
2021/08/10 01:42:43;;;;;;;9.35;2.90;;;;;;;19.31;59.58;101469.53;4969684;28;123386;-75
2021/08/10 01:45:12;;;;;;;5.60;2.97;;;;;;;19.29;59.61;101476.84;4973614;28;112416;-74
2021/08/10 01:47:41;;;;;;;4.88;3.00;;;;;;;19.29;59.53;101482.22;4975965;28;114242;-75
2021/08/10 01:50:12;;;;;;;5.05;3.03;;;;;;;19.28;59.46;101475.16;4972495;28;122323;-75
2021/08/10 01:52:48;;;;;;;5.97;2.90;;;;;;;19.28;59.61;101475.16;4988023;28;123072;-75
2021/08/10 01:55:19;;;;;;;4.85;3.25;;;;;;;19.29;59.74;101482.22;4969926;28;113510;-75
2021/08/10 01:57:49;;;;;;;7.30;3.40;;;;;;;19.28;59.71;101485.91;4970076;28;113024;-75
2021/08/10 02:00:18;;;;;;;6.00;2.78;;;;;;;19.24;59.67;101483.41;4959353;28;124614;-74
2021/08/10 02:02:54;;;;;;;4.45;2.92;;;;;;;19.26;59.95;101478.78;4961457;28;122834;-75
2021/08/10 02:05:30;;;;;;;4.60;3.10;;;;;;;19.26;59.89;101481.47;4961624;28;113550;-75
2021/08/10 02:08:01;;;;;;;5.32;2.85;;;;;;;19.25;59.87;101477.09;4959873;28;113350;-75
2021/08/10 02:10:31;;;;;;;5.55;2.90;;;;;;;19.25;59.92;101476.25;4958960;28;123194;-75
2021/08/10 02:13:00;;;;;;;8.00;3.20;;;;;;;19.26;59.97;101477.94;4961857;28;122994;-75
2021/08/10 02:15:32;;;;;;;5.28;3.03;;;;;;;19.26;60.07;101473.41;4975974;28;114150;-75
2021/08/10 02:18:03;;;;;;;5.28;2.90;;;;;;;19.24;60.02;101459.25;4952586;28;113486;-75
2021/08/10 02:20:47;;;;;;;5.80;2.80;;;;;;;19.26;59.96;101462.69;4959308;28;123698;-75
2021/08/10 02:23:16;;;;;;;4.38;2.85;;;;;;;19.29;59.97;101463.44;4975023;28;123318;-75
2021/08/10 02:25:46;;;;;;;6.95;3.17;;;;;;;19.30;59.87;101494.69;4972739;28;114508;-75
2021/08/10 02:28:16;;;;;;;7.70;3.13;;;;;;;19.28;60.01;101496.66;4965256;28;114403;-75
2021/08/10 02:30:49;;;;;;;5.32;2.85;;;;;;;19.28;60.17;101481.38;4970619;28;123880;-75
2021/08/10 02:33:21;;;;;;;6.85;2.80;;;;;;;19.30;60.17;101483.97;4990383;28;123858;-75
2021/08/10 02:35:53;;;;;;;6.05;3.22;;;;;;;19.30;60.07;101478.59;4976715;28;114128;-75
2021/08/10 02:38:22;;;;;;;3.65;2.67;;;;;;;19.30;60.21;101473.22;4959663;28;113030;-75
2021/08/10 02:40:55;;;;;;;5.35;3.08;;;;;;;19.30;60.04;101478.59;4968533;28;123637;-75
2021/08/10 02:43:27;;;;;;;7.88;3.38;;;;;;;19.29;60.08;101476.84;4960767;28;122813;-74
2021/08/10 02:45:54;;;;;;;4.72;3.15;;;;;;;19.29;60.28;101482.22;4970536;28;113989;-75
2021/08/10 02:48:22;;;;;;;4.78;2.92;;;;;;;19.30;60.04;101483.97;4956204;28;113642;-75
2021/08/10 02:50:49;;;;;;;6.28;2.80;;;;;;;19.30;60.20;101482.13;4968920;28;123034;-75
2021/08/10 02:53:18;;;;;;;7.95;2.58;;;;;;;19.31;60.24;101480.28;4954504;28;123069;-75
2021/08/10 02:55:54;;;;;;;6.63;3.15;;;;;;;19.28;60.15;101480.53;4963407;28;113019;-75
2021/08/10 02:58:27;;;;;;;6.70;2.95;;;;;;;19.27;60.20;101479.69;4957172;28;113130;-75
2021/08/10 03:01:03;;;;;;;7.15;3.25;;;;;;;19.29;60.22;101484.91;4973384;28;123207;-75
2021/08/10 03:03:33;;;;;;;4.15;2.60;;;;;;;19.24;59.97;101475.38;4957063;28;122269;-75
2021/08/10 03:06:05;;;;;;;4.68;2.97;;;;;;;19.24;60.04;101475.38;4953970;28;113721;-75
2021/08/10 03:08:37;;;;;;;7.65;2.75;;;;;;;19.24;59.99;101479.88;4955234;28;113493;-75
2021/08/10 03:11:05;;;;;;;4.78;2.58;;;;;;;19.24;60.08;101486.09;4955735;28;123765;-75
2021/08/10 03:13:38;;;;;;;5.88;2.53;;;;;;;19.21;60.16;101486.34;4967851;28;123436;-75
2021/08/10 03:16:08;;;;;;;4.82;2.85;;;;;;;19.21;59.92;101486.34;4974158;28;115976;-75
2021/08/10 03:18:39;;;;;;;4.07;2.53;;;;;;;19.20;59.98;101489.97;4994663;28;113693;-75
2021/08/10 03:21:09;;;;;;;5.03;2.65;;;;;;;19.19;59.86;101482.91;4974080;28;123455;-75
2021/08/10 03:23:39;;;;;;;5.22;2.80;;;;;;;19.16;59.82;101488.50;4963795;28;123070;-75
2021/08/10 03:26:09;;;;;;;4.32;2.45;;;;;;;19.13;59.82;101488.69;4969364;28;113274;-75
2021/08/10 03:28:41;;;;;;;4.32;2.63;;;;;;;19.11;60.13;101485.25;4970954;28;113032;-75
2021/08/10 03:31:12;;;;;;;4.22;2.38;;;;;;;19.09;59.89;101480.97;4950308;28;123370;-75
2021/08/10 03:33:41;;;;;;;3.85;2.50;;;;;;;19.06;59.99;101490.09;4975826;28;124590;-75
2021/08/10 03:36:11;;;;;;;5.85;2.35;;;;;;;19.05;59.96;101491.06;4967970;28;113927;-75
2021/08/10 03:38:39;;;;;;;3.95;2.20;;;;;;;19.03;60.01;101493.00;4974452;28;116015;-75
2021/08/10 03:41:07;;;;;;;5.28;2.50;;;;;;;19.01;59.95;101495.81;4963403;28;123831;-75
2021/08/10 03:43:36;;;;;;;3.92;2.38;;;;;;;19.00;60.17;101487.84;4966947;28;123205;-75
2021/08/10 03:46:05;;;;;;;5.38;2.58;;;;;;;18.99;60.00;101480.78;4954061;28;113294;-75
2021/08/10 03:48:39;;;;;;;4.93;2.40;;;;;;;18.98;60.08;101495.16;4952742;28;112521;-75
2021/08/10 03:51:09;;;;;;;3.95;2.30;;;;;;;18.97;60.02;101480.03;4968394;28;123346;-75
2021/08/10 03:53:37;;;;;;;4.72;2.33;;;;;;;18.95;59.97;101481.94;4967302;28;124200;-75
2021/08/10 03:56:05;;;;;;;4.47;2.42;;;;;;;18.91;59.97;101480.44;4970958;28;114515;-75
2021/08/10 03:58:40;;;;;;;4.47;2.23;;;;;;;18.88;59.91;101472.63;4967231;28;113563;-75
2021/08/10 04:01:12;;;;;;;5.43;2.40;;;;;;;18.86;60.08;101473.56;4967875;28;123832;-75
2021/08/10 04:03:45;;;;;;;3.08;2.20;;;;;;;18.85;59.85;101474.56;4950825;28;123505;-75
2021/08/10 04:06:13;;;;;;;5.70;2.30;;;;;;;18.83;59.79;101473.78;4956175;28;116116;-75
2021/08/10 04:08:42;;;;;;;3.95;2.28;;;;;;;18.81;60.13;101478.41;4955435;28;114202;-75
2021/08/10 04:11:09;;;;;;;5.20;2.50;;;;;;;18.80;59.98;101476.69;4972374;28;122937;-75
2021/08/10 04:13:36;;;;;;;3.78;2.40;;;;;;;18.79;60.10;101464.19;4970837;28;124318;-75
2021/08/10 04:16:05;;;;;;;4.78;2.50;;;;;;;18.76;59.97;101469.78;4971970;28;114299;-75
2021/08/10 04:18:39;;;;;;;4.90;2.40;;;;;;;18.73;59.89;101475.38;4953222;28;113646;-75
2021/08/10 04:21:06;;;;;;;3.75;2.33;;;;;;;18.70;59.96;101478.25;4950124;28;123855;-75
2021/08/10 04:23:33;;;;;;;4.65;2.40;;;;;;;18.66;59.86;101474.06;4967779;28;122241;-75
2021/08/10 04:26:02;;;;;;;4.55;2.53;;;;;;;18.65;59.85;101480.41;4949636;28;113620;-75
2021/08/10 04:28:30;;;;;;;5.43;2.40;;;;;;;18.64;60.08;101486.72;4969437;28;113445;-75
2021/08/10 04:30:58;;;;;;;5.38;2.55;;;;;;;18.63;59.93;101491.25;4957878;28;123175;-75
2021/08/10 04:33:26;;;;;;;6.90;2.80;;;;;;;18.61;59.88;101492.28;4976843;28;124048;-75
2021/08/10 04:35:56;;;;;;;6.13;2.58;;;;;;;18.59;59.93;101499.59;4974072;28;113859;-75
2021/08/10 04:38:23;;;;;;;4.97;2.80;;;;;;;18.58;60.10;101492.53;4978091;28;114283;-75
2021/08/10 04:40:52;;;;;;;5.00;2.85;;;;;;;18.56;60.08;101489.09;4975116;28;123454;-75
2021/08/10 04:43:39;;;;;;;6.07;2.55;;;;;;;18.56;60.02;101499.81;4981086;28;122572;-75
2021/08/10 04:46:06;;;;;;;5.68;2.55;;;;;;;18.55;60.08;101492.72;4971827;28;113422;-75
2021/08/10 04:48:35;;;;;;;6.10;2.95;;;;;;;18.54;60.02;101485.66;4971462;28;113153;-75
2021/08/10 04:51:02;;;;;;;4.10;2.53;;;;;;;18.52;59.86;101488.44;4976325;28;123979;-75
2021/08/10 04:53:30;;;;;;;5.82;3.00;;;;;;;18.51;60.00;101501.94;4959544;28;123954;-75
2021/08/10 04:55:57;;;;;;;4.30;2.63;;;;;;;18.51;60.06;101496.59;4972657;28;114632;-75
2021/08/10 04:58:26;;;;;;;5.35;2.75;;;;;;;18.50;60.01;101506.47;4969880;28;114422;-75
2021/08/10 05:00:53;;;;;;;5.10;2.53;;;;;;;18.49;60.18;101505.59;4972042;28;123793;-75
2021/08/10 05:03:21;;;;;;;4.82;2.83;;;;;;;18.49;60.01;101504.72;4961619;28;123355;-75
2021/08/10 05:05:51;;;;;;;5.00;2.92;;;;;;;18.49;60.25;101504.72;4956744;28;113809;-75
2021/08/10 05:08:18;;;;;;;6.97;2.90;;;;;;;18.49;60.24;101500.22;4969681;28;113063;-75
2021/08/10 05:10:45;;;;;;;4.70;3.10;;;;;;;18.52;60.34;101498.31;4966180;28;123273;-75
2021/08/10 05:13:16;;;;;;;4.78;2.70;;;;;;;18.53;60.37;101500.03;4966373;28;123364;-75
2021/08/10 05:15:43;;;;;;;5.82;2.88;;;;;;;18.57;60.34;101490.78;4972856;28;114283;-76
2021/08/10 05:18:11;;;;;;;7.13;3.10;;;;;;;18.60;60.55;101501.31;4970739;28;113688;-75
2021/08/10 05:20:41;;;;;;;6.35;3.20;;;;;;;18.64;60.77;101503.69;4967568;28;123199;-76
2021/08/10 05:23:08;;;;;;;6.57;3.85;;;;;;;18.68;60.57;101507.00;4970768;28;123927;-75
2021/08/10 05:25:37;;;;;;;7.78;3.58;;;;;;;18.71;60.60;101514.88;4970070;28;113873;-73
2021/08/10 05:28:08;;;;;;;5.93;2.78;;;;;;;18.75;60.71;101520.88;4957501;28;113405;-76
2021/08/10 05:30:35;;;;;;;6.28;3.05;;;;;;;18.78;60.81;101521.53;4971888;28;123306;-76
2021/08/10 05:33:05;;;;;;;4.80;2.92;;;;;;;18.80;61.00;101525.00;4968417;28;122785;-76
2021/08/10 05:35:34;;;;;;;6.13;3.53;;;;;;;18.84;60.65;101525.66;4972198;28;113512;-76
2021/08/10 05:38:04;;;;;;;8.88;3.17;;;;;;;18.87;60.83;101525.41;4968515;28;112881;-74
2021/08/10 05:40:33;;;;;;;5.80;3.08;;;;;;;18.91;60.97;101532.31;4970976;28;123837;-74
2021/08/10 05:43:02;;;;;;;5.60;3.05;;;;;;;18.95;60.74;101533.81;4969226;28;123441;-74
2021/08/10 05:45:30;;;;;;;5.40;3.25;;;;;;;18.97;60.75;101536.41;4968418;28;114357;-74
2021/08/10 05:47:57;;;;;;;4.95;3.05;;;;;;;18.99;60.81;101529.09;4955226;28;114464;-73
2021/08/10 05:50:25;;;;;;;6.00;3.13;;;;;;;19.02;60.87;101534.25;4959872;28;123561;-73
2021/08/10 05:52:53;;;;;;;6.82;3.13;;;;;;;19.03;60.94;101541.34;4964549;28;123341;-74
2021/08/10 05:55:23;;;;;;;6.60;3.67;;;;;;;19.06;60.70;101530.38;4970735;28;113538;-75
2021/08/10 05:57:51;;;;;;;6.45;2.88;;;;;;;19.10;60.85;101526.53;4960018;28;113145;-74
2021/08/10 06:00:19;;;;;;;5.38;3.00;;;;;;;19.14;60.84;101527.19;4973228;28;124154;-73
2021/08/10 06:02:57;;;;;;;4.80;2.80;;;;;;;19.17;60.98;101538.53;4970043;28;122414;-73
2021/08/10 06:05:26;;;;;;;5.30;2.78;;;;;;;19.22;60.89;101536.38;4972892;28;113494;-73
2021/08/10 06:07:55;;;;;;;4.85;3.10;;;;;;;19.28;60.86;101534.25;4964721;28;114177;-73
2021/08/10 06:10:26;;;;;;;5.47;3.15;;;;;;;19.31;60.91;101534.00;4968702;28;122862;-74
2021/08/10 06:12:53;;;;;;;7.63;3.50;;;;;;;19.35;60.87;101536.38;4949395;28;123597;-74
2021/08/10 06:15:21;;;;;;;7.65;3.55;;;;;;;19.38;60.60;101537.97;4975830;28;114338;-74
2021/08/10 06:17:50;;;;;;;6.25;2.88;;;;;;;19.40;60.93;101533.34;4976428;28;113512;-74
2021/08/10 06:20:17;;;;;;;5.32;3.42;;;;;;;19.44;60.80;101545.63;4977254;28;123348;-74
2021/08/10 06:22:44;;;;;;;5.53;3.17;;;;;;;19.48;60.73;101541.75;4975499;28;123176;-74
2021/08/10 06:25:15;;;;;;;7.65;3.17;;;;;;;19.51;60.92;101546.88;4968468;28;113878;-74
2021/08/10 06:27:45;;;;;;;9.45;3.45;;;;;;;19.54;60.72;101546.66;4957151;28;113007;-74
2021/08/10 06:30:18;;;;;;;5.00;2.97;;;;;;;19.59;60.88;101544.53;4965041;28;123417;-74
2021/08/10 06:32:45;;;;;;;5.72;3.20;;;;;;;19.63;60.71;101555.91;4969820;28;123410;-73
2021/08/10 06:35:19;;;;;;;8.52;3.00;;;;;;;19.68;60.96;101555.56;4961751;28;114078;-73
2021/08/10 06:37:49;;;;;;;5.45;3.00;;;;;;;19.72;60.87;101554.38;4968279;28;114109;-73
2021/08/10 06:40:18;;;;;;;5.55;3.13;;;;;;;19.75;60.75;101548.81;4970749;28;123235;-74
2021/08/10 06:42:48;;;;;;;6.20;3.40;;;;;;;19.80;60.74;101554.72;4994398;28;122880;-74
2021/08/10 06:45:18;;;;;;;6.55;3.35;;;;;;;19.85;60.90;101555.22;4970004;28;113416;-73
2021/08/10 06:47:48;;;;;;;8.55;3.50;;;;;;;19.89;60.78;101548.69;4975400;28;112787;-74
2021/08/10 06:50:21;;;;;;;6.00;3.10;;;;;;;19.93;60.74;101547.47;4971167;28;123457;-74
2021/08/10 06:52:48;;;;;;;6.30;3.40;;;;;;;19.97;60.93;101553.50;4970782;28;123213;-74
2021/08/10 06:55:18;;;;;;;5.55;3.50;;;;;;;20.01;60.75;101550.44;4961306;28;113817;-74
2021/08/10 06:57:50;;;;;;;6.38;3.35;;;;;;;20.05;60.68;101550.22;4969632;28;115103;-74
2021/08/10 07:00:18;;;;;;;8.52;3.80;;;;;;;20.08;60.54;101566.13;4963466;28;123254;-74
2021/08/10 07:02:46;;;;;;;5.47;3.30;;;;;;;20.11;60.54;101560.53;4968631;28;123053;-74
2021/08/10 07:05:17;;;;;;;7.40;3.72;;;;;;;20.15;60.65;101551.25;4966239;28;113951;-74
2021/08/10 07:07:45;;;;;;;7.00;3.53;;;;;;;20.20;60.61;101554.47;4971631;28;113097;-74
2021/08/10 07:10:13;;;;;;;6.97;3.38;;;;;;;20.22;60.45;101557.91;4970513;28;123438;-74
2021/08/10 07:12:43;;;;;;;7.05;3.63;;;;;;;20.26;60.27;101558.53;4954415;28;124776;-74
2021/08/10 07:15:13;;;;;;;7.32;3.42;;;;;;;20.29;60.37;101559.16;4968987;28;113559;-74
2021/08/10 07:17:42;;;;;;;7.70;3.65;;;;;;;20.32;60.64;101556.22;4960488;28;113061;-74
2021/08/10 07:20:17;;;;;;;;;;;;;;;20.34;60.18;101557.00;4972172;28;122966;-74
2021/08/10 07:22:45;;;;;;;6.90;3.75;;;;;;;20.38;60.16;101555.78;4960698;28;123764;-74
2021/08/10 07:25:13;;;;;;;8.65;3.97;;;;;;;20.42;60.23;101551.88;4961004;28;115042;-74
2021/08/10 07:27:41;;;;;;;6.68;3.72;;;;;;;20.49;60.48;101546.03;4980524;28;114752;-74
2021/08/10 07:30:10;;;;;;;6.78;3.60;;;;;;;20.53;60.47;101551.09;4968702;28;122229;-74
2021/08/10 07:32:39;;;;;;;6.32;3.35;;;;;;;20.58;60.22;101554.25;4963893;28;123279;-74
2021/08/10 07:35:08;;;;;;;6.40;3.83;;;;;;;20.62;60.32;101554.91;4969005;28;112412;-74
2021/08/10 07:37:43;;;;;;;7.93;3.75;;;;;;;20.66;60.26;101567.16;4952775;28;113291;-74
2021/08/10 07:40:13;;;;;;;7.35;3.70;;;;;;;20.71;60.49;101565.00;4968279;28;123379;-74
2021/08/10 07:42:42;;;;;;;4.97;3.28;;;;;;;20.73;60.23;101568.41;4956747;28;123599;-74
2021/08/10 07:45:10;;;;;;;5.63;3.25;;;;;;;20.76;60.35;101570.88;4955816;28;113424;-74
2021/08/10 07:47:38;;;;;;;8.48;3.50;;;;;;;20.79;60.28;101567.97;4967060;28;113509;-74
2021/08/10 07:50:06;;;;;;;5.72;3.20;;;;;;;20.80;60.10;101580.44;4969011;28;123738;-74
2021/08/10 07:52:33;;;;;;;6.28;3.17;;;;;;;20.83;60.00;101575.78;4971136;28;123555;-74
2021/08/10 07:55:00;;;;;;;6.20;2.95;;;;;;;20.86;60.13;101568.34;4962869;28;114348;-73
2021/08/10 07:57:31;;;;;;;6.85;3.22;;;;;;;20.96;60.47;101563.09;4965814;28;113841;-74
2021/08/10 07:59:59;;;;;;;6.18;3.30;;;;;;;21.07;60.61;101560.41;4982429;28;123211;-73
2021/08/10 08:02:28;;;;;;;4.32;3.03;;;;;;;21.17;60.19;101558.75;4967784;28;123172;-74
2021/08/10 08:04:56;;;;;;;5.75;3.22;;;;;;;21.27;60.23;101560.72;4950987;28;113610;-74
2021/08/10 08:07:23;;;;;;;8.50;3.47;;;;;;;21.33;60.15;101560.22;4973031;28;113530;-74
2021/08/10 08:09:51;;;;;;;6.13;3.10;;;;;;;21.40;59.95;101572.22;4981790;28;123918;-74
2021/08/10 08:12:18;;;;;;;6.70;3.33;;;;;;;21.45;59.74;101564.66;4967758;28;122772;-73
2021/08/10 08:14:46;;;;;;;6.82;3.22;;;;;;;21.51;59.63;101563.31;4981410;28;115343;-74
2021/08/10 08:17:13;;;;;;;6.95;3.22;;;;;;;21.60;59.65;101564.41;4955077;28;113739;-74
2021/08/10 08:19:50;;;;;;;4.95;3.00;;;;;;;21.69;59.62;101566.38;4961085;28;123574;-74
2021/08/10 08:22:22;;;;;;;5.38;3.08;;;;;;;21.80;59.25;101569.06;4963539;28;125131;-73
2021/08/10 08:24:49;;;;;;;5.78;3.08;;;;;;;21.88;59.04;101561.19;4972809;28;113462;-74
2021/08/10 08:27:16;;;;;;;6.05;3.03;;;;;;;21.97;58.90;101565.84;4950665;28;113162;-75
2021/08/10 08:29:44;;;;;;;4.82;3.33;;;;;;;22.05;58.60;101562.50;4996325;28;123941;-74
2021/08/10 08:32:11;;;;;;;8.13;3.20;;;;;;;22.16;58.91;101564.31;4980957;28;123940;-75
2021/08/10 08:34:40;;;;;;;7.47;3.10;;;;;;;22.29;58.62;101567.75;4956368;28;113388;-75
2021/08/10 08:37:08;;;;;;;7.15;3.20;;;;;;;22.39;58.53;101565.13;4958561;28;113363;-72
2021/08/10 08:39:35;;;;;;;7.70;3.00;;;;;;;22.48;58.29;101558.13;4978496;28;123290;-72
2021/08/10 08:42:02;;;;;;;5.30;2.85;;;;;;;22.57;57.76;101554.63;4973732;28;123397;-73
2021/08/10 08:44:36;;;;;;;6.70;2.90;;;;;;;22.66;58.08;101561.97;4970573;28;115932;-72
2021/08/10 08:47:09;;;;;;;5.18;2.67;;;;;;;22.79;57.94;101566.31;4980305;28;113437;-73
2021/08/10 08:49:39;;;;;;;5.32;2.90;;;;;;;22.92;57.55;101556.16;4970627;28;122532;-74
2021/08/10 08:52:12;;;;;;;4.25;2.50;;;;;;;23.03;57.20;101558.81;4958580;28;122915;-74
2021/08/10 08:54:42;;;;;;;4.20;2.35;;;;;;;23.13;56.99;101559.75;4948323;28;113394;-73
2021/08/10 08:57:10;;;;;;;4.25;2.28;;;;;;;23.25;56.76;101562.38;4985530;28;113156;-74
2021/08/10 08:59:42;;;;;;;5.78;2.95;;;;;;;23.33;56.57;101554.44;4974743;28;124541;-73
2021/08/10 09:02:17;;;;;;;4.05;2.47;;;;;;;23.41;56.48;101545.66;4973507;28;123464;-74
2021/08/10 09:04:45;;;;;;;3.95;2.33;;;;;;;23.48;56.04;101549.53;4974313;28;114565;-73
2021/08/10 09:07:15;;;;;;;3.28;2.15;;;;;;;23.56;55.84;101548.84;4974856;28;114283;-72
2021/08/10 09:09:45;;;;;;;4.65;2.10;;;;;;;23.61;55.83;101557.41;4974136;28;122972;-71
2021/08/10 09:12:17;;;;;;;6.65;2.50;;;;;;;23.67;55.62;101551.44;4971309;28;123049;-72
2021/08/10 09:14:52;;;;;;;4.25;2.03;;;;;;;23.72;55.48;101554.59;4972942;28;113127;-72
2021/08/10 09:17:30;;;;;;;5.20;2.30;;;;;;;23.80;55.63;101552.06;4974808;28;113550;-73
2021/08/10 09:20:03;;;;;;;4.22;1.95;;;;;;;23.88;55.48;101554.97;4975080;28;123261;-74
2021/08/10 09:22:38;;;;;;;5.07;2.10;;;;;;;23.94;55.14;101552.69;4959176;28;123318;-72
2021/08/10 09:25:26;;;;;;;4.18;2.10;;;;;;;23.98;54.85;101543.28;4992082;28;114849;-72
2021/08/10 09:28:09;;;;;;;4.43;2.00;;;;;;;24.01;54.85;101560.09;4974309;28;113364;-72
2021/08/10 09:30:43;;;;;;;3.90;2.35;;;;;;;24.06;54.80;101557.00;4965768;28;123128;-73
2021/08/10 09:33:11;;;;;;;3.78;2.38;;;;;;;24.12;54.52;101545.59;4974776;28;123950;-73
2021/08/10 09:35:44;;;;;;;4.65;1.85;;;;;;;24.14;53.93;101554.41;4954932;28;113989;-74
2021/08/10 09:38:18;;;;;;;5.50;2.15;;;;;;;24.15;53.74;101550.72;4956020;28;113101;-73
2021/08/10 09:40:51;;;;;;;3.92;1.75;;;;;;;24.13;53.76;101552.72;4973762;28;124142;-72
2021/08/10 09:43:25;;;;;;;3.33;2.10;;;;;;;24.11;53.13;101554.72;4953445;28;123253;-72
2021/08/10 09:46:16;;;;;;;4.35;2.00;;;;;;;24.07;53.45;101553.25;4962770;28;114194;-72
2021/08/10 09:48:48;;;;;;;4.93;1.85;;;;;;;24.05;53.25;101561.56;4967351;28;113402;-74
2021/08/10 09:51:21;;;;;;;3.83;2.03;;;;;;;24.01;53.23;101560.09;4958786;28;123902;-74
2021/08/10 09:54:03;;;;;;;3.65;2.08;;;;;;;24.00;53.27;101557.56;4980760;28;123005;-74
2021/08/10 09:56:52;;;;;;;4.78;2.30;;;;;;;23.99;53.29;101561.25;4943308;28;114334;-73
2021/08/10 09:59:27;;;;;;;3.50;2.00;;;;;;;24.01;53.33;101559.25;4972946;28;113174;-72
2021/08/10 10:01:59;;;;;;;3.40;1.92;;;;;;;24.02;53.40;101560.97;4968524;28;124516;-73
2021/08/10 10:04:29;;;;;;;3.60;2.20;;;;;;;24.02;53.25;101552.84;4980494;28;122699;-74
2021/08/10 10:07:15;;;;;;;3.67;2.40;;;;;;;24.04;53.08;101548.16;4975869;28;114325;-73
2021/08/10 10:10:04;;;;;;;3.17;1.92;;;;;;;24.04;53.45;101553.56;4969160;28;113178;-74
2021/08/10 10:12:41;;;;;;;3.42;2.00;;;;;;;24.06;53.29;101562.41;4951562;28;122360;-72
2021/08/10 10:15:10;;;;;;;4.53;2.20;;;;;;;24.09;53.34;101551.28;4964820;28;123604;-73
2021/08/10 10:17:38;;;;;;;4.50;2.60;;;;;;;24.10;53.41;101558.41;4988253;28;114087;-73
2021/08/10 10:20:06;;;;;;;3.38;1.92;;;;;;;24.13;53.32;101547.31;4984277;28;114544;-74
2021/08/10 10:22:35;;;;;;;3.67;1.77;;;;;;;24.17;53.19;101543.31;4963958;28;124851;-73
2021/08/10 10:25:03;;;;;;;3.72;2.28;;;;;;;24.20;52.88;101543.03;4987075;28;124451;-73
2021/08/10 10:27:35;;;;;;;3.67;1.90;;;;;;;24.23;52.72;101531.94;4960450;28;113332;-74
2021/08/10 10:30:04;;;;;;;4.03;2.20;;;;;;;24.32;53.21;101541.06;4978949;28;113729;-73
2021/08/10 10:32:31;;;;;;;4.68;2.45;;;;;;;24.43;52.59;101537.34;4987209;28;123344;-73
2021/08/10 10:34:58;;;;;;;4.85;2.20;;;;;;;24.55;52.89;101541.66;4967540;28;122870;-73
2021/08/10 10:37:28;;;;;;;4.35;2.53;;;;;;;24.69;52.87;101537.63;4981769;28;96948;-73
2021/08/10 10:39:58;;;;;;;3.15;2.53;;;;;;;24.82;52.45;101527.34;4974387;28;113044;-74
2021/08/10 10:42:26;;;;;;;3.00;2.00;;;;;;;24.99;52.11;101533.88;4989672;28;123945;-74
2021/08/10 10:44:53;;;;;;;4.20;2.30;;;;;;;25.14;52.46;101530.69;4971431;28;123446;-75
2021/08/10 10:47:31;;;;;;;3.95;2.17;;;;;;;25.30;51.94;101530.97;4974995;28;114348;-72
2021/08/10 10:49:57;;;;;;;4.13;1.77;;;;;;;25.49;51.97;101529.19;4973815;28;114672;-72
2021/08/10 10:52:33;;;;;;;3.45;1.80;;;;;;;25.68;51.17;101534.50;4987291;28;123962;-72
2021/08/10 10:55:02;;;;;;;3.08;1.75;;;;;;;25.83;51.19;101532.13;4967211;28;124090;-73
2021/08/10 10:57:30;;;;;;;2.58;1.63;;;;;;;25.95;50.49;101530.06;4980846;28;115053;-72
2021/08/10 10:59:57;;;;;;;2.42;1.75;;;;;;;26.05;50.38;101524.56;4976790;28;113652;-73
2021/08/10 11:02:26;;;;;;;4.57;1.63;;;;;;;26.12;50.45;101526.50;4974391;28;122667;-73
2021/08/10 11:05:05;;;;;;;4.53;2.22;;;;;;;26.18;50.21;101530.47;4977814;28;124599;-73
2021/08/10 11:07:47;;;;;;;2.88;2.08;;;;;;;26.17;49.41;101535.06;4961510;28;113229;-73
2021/08/10 11:10:35;;;;;;;3.70;2.10;;;;;;;26.11;49.54;101530.25;4956264;28;113515;-72
2021/08/10 11:13:05;;;;;;;3.08;2.00;;;;;;;26.09;49.34;101526.84;4977808;28;124055;-72
2021/08/10 11:15:44;;;;;;;3.53;2.35;;;;;;;26.03;49.43;101532.88;4974944;28;123876;-73
2021/08/10 11:18:11;;;;;;;3.78;2.17;;;;;;;26.02;49.48;101528.47;4983254;28;114315;-72
2021/08/10 11:20:47;;;;;;;3.28;1.95;;;;;;;26.03;49.25;101522.00;4962363;28;113760;-72
2021/08/10 11:23:21;;;;;;;3.90;2.50;;;;;;;26.05;49.30;101530.88;4976541;28;123172;-73
2021/08/10 11:25:58;;;;;;;8.60;2.57;;;;;;;26.02;48.90;101525.75;4976406;28;123911;-71
2021/08/10 11:28:32;;;;;;;4.20;2.33;;;;;;;25.95;49.04;101524.66;4978732;28;114103;-72
2021/08/10 11:31:11;;;;;;;3.83;2.17;;;;;;;25.96;49.09;101524.50;4961777;28;113412;-72
2021/08/10 11:33:40;;;;;;;2.83;2.00;;;;;;;26.02;49.35;101515.72;4978029;28;124812;-73